createdAt,value
2019-02-20T00:00:40.168Z,18.70
2019-02-20T00:03:10.679Z,17.77
2019-02-20T00:05:41.394Z,17.73
2019-02-20T00:08:10.457Z,17.80
2019-02-20T00:10:43.498Z,17.53
2019-02-20T00:13:10.071Z,17.23
2019-02-20T00:15:39.021Z,17.43
2019-02-20T00:18:08.077Z,17.30
2019-02-20T00:20:39.497Z,17.17
2019-02-20T00:23:08.127Z,17.53
2019-02-20T00:25:37.064Z,17.70
2019-02-20T00:28:06.087Z,17.53
2019-02-20T00:30:36.779Z,16.83
2019-02-20T00:33:05.722Z,17.70
2019-02-20T00:35:37.424Z,15.57
2019-02-20T00:38:07.848Z,16.13
2019-02-20T00:40:36.888Z,16.17
2019-02-20T00:43:05.882Z,16.70
2019-02-20T00:45:39.343Z,16.00
2019-02-20T00:48:15.555Z,16.27
2019-02-20T00:50:45.814Z,16.37
2019-02-20T00:53:20.996Z,16.23
2019-02-20T00:55:53.972Z,16.17
2019-02-20T00:58:23.494Z,16.00
2019-02-20T01:00:52.598Z,15.37
2019-02-20T01:03:21.648Z,14.47
2019-02-20T01:05:53.509Z,15.97
2019-02-20T01:08:23.762Z,14.13
2019-02-20T01:10:55.555Z,14.60
2019-02-20T01:13:24.239Z,13.93
2019-02-20T01:15:54.715Z,13.90
2019-02-20T01:18:25.227Z,13.20
2019-02-20T01:20:55.737Z,12.53
2019-02-20T01:23:24.892Z,13.30
2019-02-20T01:25:53.875Z,12.47
2019-02-20T01:28:23.156Z,12.33
2019-02-20T01:30:52.470Z,12.30
2019-02-20T01:33:24.720Z,13.47
2019-02-20T01:35:55.243Z,12.13
2019-02-20T01:38:35.031Z,12.70
2019-02-20T01:41:05.190Z,12.37
2019-02-20T01:43:37.213Z,11.43
2019-02-20T01:46:09.932Z,11.53
2019-02-20T01:48:40.567Z,11.70
2019-02-20T01:51:09.849Z,11.37
2019-02-20T01:53:41.303Z,12.13
2019-02-20T01:56:11.856Z,10.57
2019-02-20T01:58:40.810Z,11.43
2019-02-20T02:01:10.115Z,10.87
2019-02-20T02:06:29.524Z,10.97
2019-02-20T02:08:59.703Z,12.30
2019-02-20T02:12:17.746Z,12.03
2019-02-20T02:14:03.237Z,11.10
2019-02-20T02:16:32.785Z,10.60
2019-02-20T02:19:04.557Z,12.50
2019-02-20T02:21:42.491Z,11.77
2019-02-20T02:27:08.680Z,11.20
2019-02-20T02:29:39.084Z,12.07
2019-02-20T02:32:14.261Z,10.97
2019-02-20T02:34:44.732Z,11.13
2019-02-20T02:37:13.928Z,11.07
2019-02-20T02:42:54.081Z,11.57
2019-02-20T02:45:31.215Z,11.47
2019-02-20T02:48:07.447Z,11.93
2019-02-20T02:50:37.983Z,11.67
2019-02-20T02:53:06.937Z,11.50
2019-02-20T02:55:36.149Z,11.47
2019-02-20T02:58:08.386Z,12.33
2019-02-20T03:00:38.805Z,11.90
2019-02-20T03:03:07.788Z,12.23
2019-02-20T03:05:36.855Z,13.10
2019-02-20T03:08:07.303Z,11.93
2019-02-20T03:10:36.522Z,12.90
2019-02-20T03:13:09.643Z,12.77
2019-02-20T03:15:38.612Z,12.23
2019-02-20T03:18:07.562Z,12.93
2019-02-20T03:20:36.555Z,13.73
2019-02-20T03:23:05.518Z,13.70
2019-02-20T03:25:34.817Z,14.17
2019-02-20T03:28:03.995Z,15.23
2019-02-20T03:30:34.500Z,14.67
2019-02-20T03:33:03.461Z,14.97
2019-02-20T03:35:32.528Z,16.37
2019-02-20T03:38:01.864Z,16.73
2019-02-20T03:40:30.802Z,18.67
2019-02-20T03:43:00.087Z,18.27
2019-02-20T03:45:32.197Z,18.67
2019-02-20T03:48:01.185Z,18.90
2019-02-20T03:50:30.605Z,19.13
2019-02-20T03:52:59.539Z,20.93
2019-02-20T03:55:28.787Z,21.20
2019-02-20T03:57:57.961Z,21.37
2019-02-20T04:00:26.920Z,22.00
2019-02-20T04:02:56.033Z,21.63
2019-02-20T04:05:25.254Z,22.20
2019-02-20T04:07:54.204Z,22.73
2019-02-20T04:10:23.149Z,23.07
2019-02-20T04:12:55.485Z,23.57
2019-02-20T04:15:24.461Z,23.17
2019-02-20T04:17:53.409Z,24.13
2019-02-20T04:20:22.725Z,24.30
2019-02-20T04:22:51.685Z,24.10
2019-02-20T04:25:20.725Z,24.13
2019-02-20T04:27:51.207Z,24.00
2019-02-20T04:30:20.156Z,24.40
2019-02-20T04:32:50.954Z,24.60
2019-02-20T04:35:22.631Z,24.00
2019-02-20T04:37:53.857Z,24.57
2019-02-20T04:40:29.105Z,25.07
2019-02-20T04:42:59.088Z,24.07
2019-02-20T04:45:28.136Z,23.30
2019-02-20T04:47:57.649Z,23.50
2019-02-20T04:50:26.591Z,24.10
2019-02-20T04:52:55.552Z,24.77
2019-02-20T04:55:24.576Z,22.63
2019-02-20T04:58:14.139Z,24.00
2019-02-20T05:00:43.200Z,23.70
2019-02-20T05:03:12.136Z,23.77
2019-02-20T05:05:47.060Z,23.07
2019-02-20T05:08:19.266Z,24.27
2019-02-20T05:10:52.422Z,24.20
2019-02-20T05:13:23.039Z,22.53
2019-02-20T05:15:53.347Z,24.43
2019-02-20T05:18:23.912Z,23.97
2019-02-20T05:20:54.537Z,22.73
2019-02-20T05:23:25.082Z,24.03
2019-02-20T05:25:54.022Z,23.97
2019-02-20T05:28:24.430Z,23.23
2019-02-20T05:30:53.578Z,22.27
2019-02-20T05:33:22.523Z,23.10
2019-02-20T05:35:53.036Z,23.40
2019-02-20T05:38:25.063Z,22.70
2019-02-20T05:40:57.660Z,24.13
2019-02-20T05:43:27.557Z,23.57
2019-02-20T05:46:01.153Z,23.33
2019-02-20T05:48:30.180Z,22.87
2019-02-20T05:51:09.225Z,23.93
2019-02-20T05:53:53.122Z,23.63
2019-02-20T05:56:33.113Z,25.00
2019-02-20T05:59:02.139Z,24.37
2019-02-20T06:01:31.080Z,24.27
2019-02-20T06:04:00.158Z,24.43
2019-02-20T06:06:29.242Z,25.20
2019-02-20T06:09:04.381Z,24.63
2019-02-20T06:11:35.553Z,24.70
2019-02-20T06:14:06.041Z,24.30
2019-02-20T06:16:35.258Z,25.53
2019-02-20T06:19:07.159Z,24.83
2019-02-20T06:21:37.584Z,24.17
2019-02-20T06:24:13.571Z,25.23
2019-02-20T06:26:42.591Z,25.17
2019-02-20T06:29:18.328Z,26.73
2019-02-20T06:31:47.559Z,26.17
2019-02-20T06:34:16.508Z,25.73
2019-02-20T06:36:45.472Z,25.90
2019-02-20T06:39:14.568Z,25.67
2019-02-20T06:41:45.094Z,26.17
2019-02-20T06:44:20.143Z,26.90
2019-02-20T06:46:50.011Z,27.50
2019-02-20T06:49:20.864Z,27.03
2019-02-20T06:51:51.243Z,26.50
2019-02-20T06:54:22.988Z,27.10
2019-02-20T06:56:53.659Z,27.43
2019-02-20T06:59:22.936Z,28.73
2019-02-20T07:01:53.867Z,27.53
2019-02-20T07:04:22.819Z,27.47
2019-02-20T07:07:03.913Z,29.67
2019-02-20T07:09:44.373Z,28.20
2019-02-20T07:12:43.978Z,28.33
2019-02-20T07:15:34.026Z,29.20
2019-02-20T07:18:18.941Z,29.70
2019-02-20T07:21:05.344Z,29.50
2019-02-20T07:26:42.492Z,28.80
2019-02-20T07:29:52.925Z,30.23
2019-02-20T07:32:23.442Z,30.73
2019-02-20T07:34:52.435Z,30.30
2019-02-20T07:37:25.357Z,29.67
2019-02-20T07:40:13.590Z,30.10
2019-02-20T07:42:46.004Z,31.47
2019-02-20T07:45:20.056Z,29.50
2019-02-20T07:47:54.786Z,29.90
2019-02-20T07:53:15.735Z,29.97
2019-02-20T07:55:46.316Z,30.83
2019-02-20T07:58:39.987Z,29.23
2019-02-20T08:00:53.411Z,29.27
2019-02-20T08:03:26.244Z,29.63
2019-02-20T08:05:55.227Z,30.60
2019-02-20T08:08:24.169Z,28.67
2019-02-20T08:10:53.457Z,29.03
2019-02-20T08:13:22.503Z,29.87
2019-02-20T08:15:58.963Z,29.23
2019-02-20T08:18:37.372Z,29.43
2019-02-20T08:21:17.816Z,28.07
2019-02-20T08:23:56.152Z,29.47
2019-02-20T08:26:44.340Z,29.27
2019-02-20T08:29:37.019Z,27.60
2019-02-20T08:32:07.848Z,27.67
2019-02-20T08:34:37.156Z,26.77
2019-02-20T08:37:06.188Z,27.43
2019-02-20T08:39:35.139Z,26.63
2019-02-20T08:42:04.761Z,27.50
2019-02-20T08:44:33.736Z,27.37
2019-02-20T08:47:05.525Z,27.67
2019-02-20T08:49:35.910Z,27.23
2019-02-20T08:52:04.850Z,27.33
2019-02-20T08:54:35.265Z,26.93
2019-02-20T08:57:04.266Z,26.93
2019-02-20T08:59:33.390Z,26.57
2019-02-20T09:02:02.647Z,27.67
2019-02-20T09:04:32.115Z,25.83
2019-02-20T09:07:02.379Z,27.30
2019-02-20T09:09:31.386Z,23.83
2019-02-20T09:12:00.528Z,23.63
2019-02-20T09:14:29.493Z,23.50
2019-02-20T09:16:59.249Z,25.47
2019-02-20T09:19:28.551Z,23.40
2019-02-20T09:21:57.532Z,23.70
2019-02-20T09:24:26.559Z,24.50
2019-02-20T09:26:55.593Z,23.50
2019-02-20T09:29:26.099Z,23.60
2019-02-20T09:31:55.039Z,24.90
2019-02-20T09:34:24.267Z,25.20
2019-02-20T09:36:54.255Z,24.67
2019-02-20T09:39:31.954Z,24.63
2019-02-20T09:42:01.006Z,24.50
2019-02-20T09:44:32.677Z,23.37
2019-02-20T09:47:01.778Z,24.77
2019-02-20T09:49:30.709Z,23.47
2019-02-20T09:52:00.537Z,25.33
2019-02-20T09:54:29.832Z,22.80
2019-02-20T09:57:00.249Z,23.77
2019-02-20T09:59:29.193Z,24.87
2019-02-20T10:01:58.273Z,24.97
2019-02-20T10:04:27.220Z,24.50
2019-02-20T10:06:56.603Z,24.97
2019-02-20T10:09:25.759Z,23.37
2019-02-20T10:11:56.142Z,23.13
2019-02-20T10:14:28.028Z,24.13
2019-02-20T10:16:57.179Z,24.23
2019-02-20T10:19:29.187Z,23.10
2019-02-20T10:22:04.330Z,24.53
2019-02-20T10:24:34.923Z,24.47
2019-02-20T10:27:04.474Z,23.60
2019-02-20T10:29:34.431Z,23.93
2019-02-20T10:32:03.637Z,24.47
2019-02-20T10:34:33.621Z,24.33
2019-02-20T10:37:02.821Z,23.27
2019-02-20T10:39:33.092Z,23.20
2019-02-20T10:42:03.593Z,21.60
2019-02-20T10:44:32.531Z,24.07
2019-02-20T10:47:03.063Z,24.07
2019-02-20T10:49:32.247Z,24.97
2019-02-20T10:52:03.030Z,23.73
2019-02-20T10:54:36.609Z,23.17
2019-02-20T10:57:05.552Z,24.03
2019-02-20T10:59:37.158Z,23.43
2019-02-20T11:02:09.497Z,24.50
2019-02-20T11:04:38.475Z,24.90
2019-02-20T11:07:07.550Z,25.30
2019-02-20T11:09:46.341Z,23.63
2019-02-20T11:12:18.551Z,24.17
2019-02-20T11:14:53.624Z,25.70
2019-02-20T11:17:22.566Z,25.23
2019-02-20T11:19:51.508Z,24.53
2019-02-20T11:22:22.013Z,25.90
2019-02-20T11:24:55.437Z,25.27
2019-02-20T11:27:21.664Z,24.23
2019-02-20T11:29:51.555Z,25.57
2019-02-20T11:32:21.345Z,24.50
2019-02-20T11:34:50.394Z,24.87
2019-02-20T11:37:19.587Z,24.13
2019-02-20T11:39:48.519Z,24.10
2019-02-20T11:42:18.089Z,22.93
2019-02-20T11:44:48.718Z,22.83
2019-02-20T11:47:19.131Z,21.57
2019-02-20T11:49:58.480Z,22.77
2019-02-20T11:52:39.363Z,23.10
2019-02-20T11:58:37.063Z,22.20
2019-02-20T12:01:07.829Z,23.93
2019-02-20T12:03:36.884Z,24.57
2019-02-20T12:06:06.929Z,23.73
2019-02-20T12:08:37.430Z,23.37
2019-02-20T12:11:12.368Z,24.17
2019-02-20T12:13:52.124Z,22.37
2019-02-20T12:16:21.268Z,24.13
2019-02-20T12:18:57.756Z,24.10
2019-02-20T12:21:34.766Z,22.87
2019-02-20T12:24:05.120Z,22.50
2019-02-20T12:26:39.999Z,22.73
2019-02-20T12:29:11.280Z,23.03
2019-02-20T12:31:41.841Z,23.27
2019-02-20T12:34:24.349Z,22.00
2019-02-20T12:36:56.217Z,21.87
2019-02-20T12:40:06.379Z,22.37
2019-02-20T12:42:59.301Z,21.37
2019-02-20T12:45:34.149Z,20.50
2019-02-20T12:48:12.150Z,20.73
2019-02-20T12:50:49.620Z,20.40
2019-02-20T12:53:25.783Z,20.63
2019-02-20T13:02:11.600Z,20.40
2019-02-20T13:10:35.335Z,19.43
2019-02-20T13:13:08.402Z,19.33
2019-02-20T13:15:38.105Z,19.57
2019-02-20T13:18:14.822Z,19.70
2019-02-20T13:20:45.328Z,19.73
2019-02-20T13:23:20.096Z,19.60
2019-02-20T13:25:51.396Z,20.20
2019-02-20T13:28:22.828Z,19.90
2019-02-20T13:30:57.226Z,20.60
2019-02-20T13:33:27.813Z,20.60
2019-02-20T13:38:57.395Z,19.77
2019-02-20T13:41:24.745Z,18.53
2019-02-20T13:43:55.915Z,19.27
2019-02-20T13:46:26.821Z,18.97
2019-02-20T13:48:59.187Z,20.10
2019-02-20T13:51:32.340Z,20.17
2019-02-20T13:54:03.392Z,19.07
2019-02-20T13:56:33.879Z,19.03
2019-02-20T13:59:04.369Z,19.40
2019-02-20T14:01:35.282Z,18.00
2019-02-20T14:04:09.729Z,18.83
2019-02-20T14:06:44.649Z,18.37
2019-02-20T14:09:16.179Z,17.77
2019-02-20T14:11:46.709Z,16.77
2019-02-20T14:14:20.228Z,17.47
2019-02-20T14:16:51.912Z,17.13
2019-02-20T14:19:22.439Z,16.77
2019-02-20T14:21:55.170Z,16.43
2019-02-20T14:24:27.758Z,19.03
2019-02-20T14:27:10.271Z,21.03
2019-02-20T14:29:32.295Z,21.20
2019-02-20T14:32:02.456Z,18.57
2019-02-20T14:34:31.783Z,18.50
2019-02-20T14:37:00.749Z,19.20
2019-02-20T14:39:30.394Z,17.80
2019-02-20T14:42:00.977Z,17.97
2019-02-20T14:44:32.705Z,17.87
2019-02-20T14:47:02.741Z,18.87
2019-02-20T14:49:33.591Z,17.70
2019-02-20T14:52:02.702Z,18.13
2019-02-20T14:54:33.128Z,18.90
2019-02-20T14:57:19.197Z,20.70
2019-02-20T14:59:45.791Z,20.10
2019-02-20T15:02:16.571Z,20.37
2019-02-20T15:05:02.657Z,22.30
2019-02-20T15:07:33.716Z,23.13
2019-02-20T15:10:03.183Z,22.97
2019-02-20T15:12:32.136Z,23.67
2019-02-20T15:15:10.145Z,24.10
2019-02-20T15:17:31.741Z,23.37
2019-02-20T15:20:16.617Z,23.80
2019-02-20T15:22:50.887Z,25.17
2019-02-20T15:25:31.800Z,22.80
2019-02-20T15:28:04.941Z,22.43
2019-02-20T15:30:39.691Z,21.37
2019-02-20T15:34:15.572Z,21.03
2019-02-20T15:38:37.843Z,20.07
2019-02-20T15:41:22.273Z,20.73
2019-02-20T15:43:51.567Z,21.07
2019-02-20T15:46:25.215Z,21.00
2019-02-20T15:49:03.656Z,20.03
2019-02-20T15:51:35.022Z,20.77
2019-02-20T15:54:14.044Z,20.80
2019-02-20T15:56:40.748Z,20.63
2019-02-20T15:59:16.151Z,20.07
2019-02-20T16:02:02.510Z,20.67
2019-02-20T16:04:30.670Z,19.47
2019-02-20T16:07:08.676Z,20.90
2019-02-20T16:09:39.162Z,20.63
2019-02-20T16:12:12.503Z,19.57
2019-02-20T16:14:53.475Z,21.10
2019-02-20T16:17:28.306Z,20.00
2019-02-20T16:19:57.522Z,18.87
2019-02-20T16:22:28.390Z,18.50
2019-02-20T16:25:01.126Z,17.27
2019-02-20T16:27:32.236Z,17.57
2019-02-20T16:30:05.738Z,16.07
2019-02-20T16:32:34.737Z,14.33
2019-02-20T16:35:07.704Z,13.57
2019-02-20T16:37:39.447Z,11.33
2019-02-20T16:40:13.703Z,11.63
2019-02-20T16:42:42.985Z,11.50
2019-02-20T16:45:20.274Z,11.90
2019-02-20T16:47:50.000Z,11.20
2019-02-20T16:50:19.087Z,11.03
2019-02-20T16:52:48.336Z,10.87
2019-02-20T16:55:55.689Z,10.07
2019-02-20T16:57:59.031Z,10.77
2019-02-20T17:00:48.751Z,9.80
2019-02-20T17:03:28.426Z,8.77
2019-02-20T17:06:07.114Z,8.87
2019-02-20T17:08:43.907Z,8.53
2019-02-20T17:11:17.299Z,9.30
2019-02-20T17:13:49.481Z,7.47
2019-02-20T17:16:24.449Z,7.40
2019-02-20T17:19:00.286Z,7.60
2019-02-20T17:21:48.342Z,7.03
2019-02-20T17:24:23.380Z,7.20
2019-02-20T17:26:54.360Z,5.90
2019-02-20T17:29:28.447Z,6.70
2019-02-20T17:32:00.489Z,6.43
2019-02-20T17:34:35.730Z,6.90
2019-02-20T17:37:07.872Z,7.00
2019-02-20T17:39:44.437Z,6.70
2019-02-20T17:42:18.373Z,6.70
2019-02-20T17:44:52.237Z,6.60
2019-02-20T17:47:27.587Z,6.83
2019-02-20T17:50:05.837Z,7.20
2019-02-20T17:52:39.546Z,6.90
2019-02-20T17:55:16.866Z,7.00
2019-02-20T17:57:51.050Z,6.70
2019-02-20T18:00:29.867Z,6.23
2019-02-20T18:05:56.051Z,7.27
2019-02-20T18:08:32.351Z,6.63
2019-02-20T18:11:04.552Z,6.43
2019-02-20T18:13:46.609Z,6.63
2019-02-20T18:16:17.153Z,6.80
2019-02-20T18:18:58.427Z,5.83
2019-02-20T18:21:36.491Z,6.67
2019-02-20T18:24:13.985Z,6.50
2019-02-20T18:30:07.196Z,7.10
2019-02-20T18:35:09.466Z,6.33
2019-02-20T18:37:44.609Z,6.57
2019-02-20T18:40:42.685Z,6.60
2019-02-20T18:43:06.936Z,6.43
2019-02-20T18:45:37.569Z,6.97
2019-02-20T18:48:09.503Z,7.20
2019-02-20T18:50:40.429Z,7.17
2019-02-20T18:53:18.738Z,6.10
2019-02-20T18:55:57.589Z,6.07
2019-02-20T18:58:37.951Z,7.07
2019-02-20T19:01:13.032Z,7.17
2019-02-20T19:03:53.894Z,6.73
2019-02-20T19:07:09.908Z,6.27
2019-02-20T19:08:57.590Z,7.20
2019-02-20T19:15:11.855Z,6.90
2019-02-20T19:17:25.270Z,6.87
2019-02-20T19:20:23.929Z,6.93
2019-02-20T19:23:22.667Z,6.93
2019-02-20T19:26:33.186Z,7.33
2019-02-20T19:29:01.234Z,7.03
2019-02-20T19:32:09.992Z,6.80
2019-02-20T19:35:21.424Z,6.50
2019-02-20T19:38:37.122Z,6.80
2019-02-20T19:41:09.022Z,6.70
2019-02-20T19:43:53.242Z,7.00
2019-02-20T19:46:39.919Z,7.03
2019-02-20T19:49:22.780Z,7.37
2019-02-20T19:52:15.220Z,7.03
2019-02-20T19:58:23.526Z,7.30
2019-02-20T20:01:26.688Z,7.53
2019-02-20T20:04:11.199Z,7.47
2019-02-20T20:06:48.517Z,7.30
2019-02-20T20:09:42.002Z,7.57
2019-02-20T20:12:12.883Z,7.90
2019-02-20T20:14:59.584Z,7.83
2019-02-20T20:17:36.808Z,7.67
2019-02-20T20:20:19.145Z,7.40
2019-02-20T20:23:08.270Z,7.47
2019-02-20T20:29:23.934Z,7.87
2019-02-20T20:31:59.953Z,7.77
2019-02-20T20:35:18.526Z,8.63
2019-02-20T20:38:20.225Z,8.83
2019-02-20T20:41:09.203Z,7.57
2019-02-20T20:44:14.351Z,8.90
2019-02-20T20:46:59.284Z,8.20
2019-02-20T20:49:58.148Z,8.30
2019-02-20T20:52:59.848Z,8.17
2019-02-20T20:55:51.281Z,8.40
2019-02-20T20:58:50.687Z,8.50
2019-02-20T21:01:42.566Z,8.83
2019-02-20T21:06:19.577Z,8.70
2019-02-20T21:13:36.579Z,9.47
2019-02-20T21:16:26.175Z,8.93
2019-02-20T21:19:21.014Z,8.87
2019-02-20T21:22:53.098Z,9.87
2019-02-20T21:24:34.892Z,9.03
2019-02-20T21:27:29.453Z,9.17
2019-02-20T21:30:13.461Z,10.13
2019-02-20T21:33:13.109Z,10.10
2019-02-20T21:36:23.193Z,10.33
2019-02-20T21:39:02.680Z,10.13
2019-02-20T21:41:45.808Z,10.30
2019-02-20T21:44:53.689Z,9.80
2019-02-20T21:47:45.807Z,11.03
2019-02-20T21:50:32.300Z,10.57
2019-02-20T21:53:29.996Z,10.97
2019-02-20T21:56:13.072Z,11.50
2019-02-20T21:58:56.900Z,11.03
2019-02-20T22:01:35.103Z,11.70
2019-02-20T22:04:12.189Z,11.73
2019-02-20T22:07:15.056Z,11.43
2019-02-20T22:10:17.023Z,11.00
2019-02-20T22:13:22.142Z,11.53
2019-02-20T22:19:04.165Z,11.80
2019-02-20T22:21:55.250Z,12.33
2019-02-20T22:24:52.624Z,12.07
2019-02-20T22:27:45.576Z,13.17
2019-02-20T22:30:26.872Z,12.17
2019-02-20T22:33:08.864Z,12.20
2019-02-20T22:36:02.844Z,12.93
2019-02-20T22:38:58.286Z,12.67
2019-02-20T22:41:53.186Z,12.43
2019-02-20T22:44:58.558Z,13.47
2019-02-20T22:47:55.336Z,13.50
2019-02-20T22:52:41.023Z,13.50
2019-02-20T22:54:13.517Z,13.80
2019-02-20T22:56:57.110Z,13.90
2019-02-20T23:00:01.976Z,14.17
2019-02-20T23:02:47.038Z,14.17
2019-02-20T23:08:35.824Z,14.97
2019-02-20T23:11:23.162Z,14.30
2019-02-20T23:14:18.277Z,14.83
2019-02-20T23:16:53.141Z,14.70
2019-02-20T23:19:39.898Z,14.90
2019-02-20T23:22:01.204Z,15.17
2019-02-20T23:24:34.080Z,15.23
2019-02-20T23:27:06.678Z,15.67
2019-02-20T23:29:36.011Z,15.77
2019-02-20T23:32:32.000Z,15.37
2019-02-20T23:34:46.456Z,16.47
2019-02-20T23:37:15.359Z,15.77
2019-02-20T23:39:45.729Z,15.17
2019-02-20T23:42:16.616Z,15.20
2019-02-20T23:44:50.213Z,15.43
2019-02-20T23:47:21.504Z,15.97
2019-02-20T23:49:57.008Z,16.37
2019-02-20T23:52:29.538Z,16.53
2019-02-20T23:55:01.253Z,15.33
2019-02-20T23:57:35.313Z,16.10
